Time;durP1;ratioP1;P1;durP2;ratioP2;P2;SDS_P1;SDS_P2;PMS_P1;PMS_P2;Temp;Humidity;BMP_temperature;BMP_pressure;BME280_temperature;BME280_humidity;BME280_pressure;Samples;Min_cycle;Max_cycle;Signal;HPM_P1;HPM_P2
2023/11/14 00:00:53;;;;;;;28.05;5.65;;;;;;;12.07;100.00;100043.31;6079474;19;20458;-73
2023/11/14 00:03:00;;;;;;;35.97;5.50;;;;;;;11.99;100.00;100035.03;6076815;19;20010;-76
2023/11/14 00:05:07;;;;;;;29.35;5.35;;;;;;;12.03;100.00;100054.97;6078339;19;20101;-74
2023/11/14 00:07:12;;;;;;;30.27;5.45;;;;;;;11.97;100.00;100046.56;6078754;19;20017;-74
2023/11/14 00:09:17;;;;;;;39.67;6.68;;;;;;;12.02;100.00;100050.63;6075084;19;20011;-74
2023/11/14 00:11:24;;;;;;;31.70;6.55;;;;;;;12.02;100.00;100039.25;6077099;19;20661;-73
2023/11/14 00:13:26;;;;;;;26.38;5.50;;;;;;;12.01;100.00;100048.09;6075945;19;20025;-74
2023/11/14 00:15:31;;;;;;;28.30;5.90;;;;;;;12.01;100.00;100048.94;6076182;19;20094;-72
2023/11/14 00:17:41;;;;;;;43.30;6.75;;;;;;;11.97;100.00;100051.84;6076983;19;20007;-72
2023/11/14 00:19:46;;;;;;;29.92;4.68;;;;;;;12.01;100.00;100058.63;6076717;19;20011;-72
2023/11/14 00:21:53;;;;;;;23.00;4.38;;;;;;;12.01;100.00;100054.22;6076058;19;20018;-72
2023/11/14 00:24:00;;;;;;;44.13;6.90;;;;;;;12.01;100.00;100061.28;6075232;19;20006;-72
2023/11/14 00:26:05;;;;;;;29.25;6.03;;;;;;;12.05;100.00;100060.13;6075207;19;20086;-72
2023/11/14 00:28:10;;;;;;;29.65;5.95;;;;;;;12.01;100.00;100054.22;6076925;19;20014;-72
2023/11/14 00:30:14;;;;;;;30.50;5.70;;;;;;;11.99;100.00;100053.44;6074825;19;20038;-72
2023/11/14 00:32:19;;;;;;;23.67;5.22;;;;;;;11.98;100.00;100049.13;6077453;19;20016;-72
2023/11/14 00:34:29;;;;;;;26.70;5.47;;;;;;;11.99;100.00;100060.50;6077644;19;20329;-72
2023/11/14 00:36:34;;;;;;;31.92;5.72;;;;;;;11.94;100.00;100057.28;6077454;19;20025;-73
2023/11/14 00:38:39;;;;;;;36.95;6.00;;;;;;;11.94;100.00;100062.56;6073891;19;20010;-74
2023/11/14 00:40:44;;;;;;;30.50;5.47;;;;;;;11.89;100.00;100059.34;6076061;19;20010;-72
2023/11/14 00:42:50;;;;;;;34.63;4.60;;;;;;;11.89;100.00;100048.81;6075094;19;20469;-73
2023/11/14 00:44:58;;;;;;;27.73;5.05;;;;;;;11.88;100.00;100057.66;6079199;19;20010;-72
2023/11/14 00:47:06;;;;;;;29.15;4.68;;;;;;;11.92;100.00;100064.44;6077908;19;20027;-72
2023/11/14 00:49:11;;;;;;;40.13;5.65;;;;;;;11.95;100.00;100058.97;6077213;19;20021;-72
2023/11/14 00:51:22;;;;;;;26.88;4.88;;;;;;;11.89;100.00;100064.63;6075877;19;20030;-73
2023/11/14 00:53:26;;;;;;;31.48;4.75;;;;;;;11.95;100.00;100066.88;6073814;19;20009;-74
2023/11/14 00:55:29;;;;;;;28.45;4.57;;;;;;;11.95;100.00;100069.50;6080939;19;20010;-72
2023/11/14 00:57:34;;;;;;;27.27;4.63;;;;;;;11.97;100.00;100065.00;6082448;19;20990;-72
2023/11/14 00:59:39;;;;;;;23.08;5.07;;;;;;;11.98;100.00;100075.47;6080475;19;20020;-72
2023/11/14 01:01:41;;;;;;;21.63;4.70;;;;;;;11.93;100.00;100089.81;6082533;19;20222;-73
2023/11/14 01:03:46;;;;;;;20.30;4.38;;;;;;;11.92;100.00;100069.69;6083594;19;20007;-73
2023/11/14 01:05:52;;;;;;;27.90;5.85;;;;;;;11.91;100.00;100083.81;6082559;19;20050;-73
2023/11/14 01:07:59;;;;;;;33.55;6.22;;;;;;;11.89;100.00;100088.31;6083764;19;20003;-73
2023/11/14 01:10:06;;;;;;;30.45;5.18;;;;;;;11.91;100.00;100079.38;6081315;19;20007;-73
2023/11/14 01:12:08;;;;;;;30.45;4.97;;;;;;;11.98;100.00;100078.09;6081085;19;20003;-73
2023/11/14 01:14:13;;;;;;;29.73;5.00;;;;;;;12.03;100.00;100088.34;6083856;19;20030;-73
2023/11/14 01:16:21;;;;;;;25.20;4.65;;;;;;;12.00;100.00;100076.19;6080919;19;20470;-72
2023/11/14 01:18:26;;;;;;;30.52;4.43;;;;;;;11.95;100.00;100082.69;6082259;19;20031;-73
2023/11/14 01:20:31;;;;;;;44.90;5.68;;;;;;;11.95;100.00;100096.69;6082937;19;20010;-73
2023/11/14 01:22:36;;;;;;;28.75;5.78;;;;;;;11.94;100.00;100105.53;6082020;19;20007;-73
2023/11/14 01:24:44;;;;;;;27.90;5.25;;;;;;;11.91;100.00;100094.34;6080197;19;20007;-73
2023/11/14 01:26:49;;;;;;;23.73;4.32;;;;;;;11.96;100.00;100103.66;6082764;19;20014;-73
2023/11/14 01:28:54;;;;;;;29.15;5.20;;;;;;;11.95;100.00;100106.38;6082695;19;20015;-73
2023/11/14 01:30:59;;;;;;;33.92;4.80;;;;;;;11.92;100.00;100091.59;6081068;19;20002;-73
2023/11/14 01:33:04;;;;;;;19.92;4.35;;;;;;;11.97;100.00;100099.25;6082309;19;20514;-73
2023/11/14 01:35:10;;;;;;;39.40;7.68;;;;;;;11.94;100.00;100100.25;6079237;19;20003;-73
2023/11/14 01:37:15;;;;;;;25.92;5.40;;;;;;;11.98;100.00;100108.81;6079361;19;20003;-72
2023/11/14 01:39:21;;;;;;;32.67;4.10;;;;;;;11.97;100.00;100113.25;6077839;19;20038;-72
2023/11/14 01:41:30;;;;;;;33.80;6.07;;;;;;;11.95;100.00;100109.84;6078440;19;20458;-72
2023/11/14 01:43:41;;;;;;;26.85;5.40;;;;;;;11.98;100.00;100103.56;6079555;19;20042;-73
2023/11/14 01:45:47;;;;;;;30.83;5.30;;;;;;;11.99;100.00;100107.91;6079496;19;20480;-72
2023/11/14 01:47:52;;;;;;;29.30;5.55;;;;;;;11.97;100.00;100120.31;6079302;19;20007;-72
2023/11/14 01:49:54;;;;;;;23.95;5.20;;;;;;;11.95;100.00;100124.81;6079230;19;20463;-72
2023/11/14 01:52:00;;;;;;;;;;;;;;;11.97;100.00;100141.38;6077947;19;20424;-72
2023/11/14 01:54:07;;;;;;;21.45;5.43;;;;;;;12.03;100.00;100155.06;6075378;19;19918;-72
2023/11/14 01:56:13;;;;;;;24.17;6.70;;;;;;;11.99;100.00;100144.78;6081018;19;20625;-72
2023/11/14 01:58:21;;;;;;;28.38;5.07;;;;;;;11.98;100.00;100149.19;6076706;19;20446;-72
2023/11/14 02:00:27;;;;;;;33.50;6.03;;;;;;;12.08;100.00;100154.75;6076999;19;21150;-72
2023/11/14 02:02:35;;;;;;;30.70;5.95;;;;;;;12.05;100.00;100160.22;6075444;19;20388;-72
2023/11/14 02:04:41;;;;;;;25.42;5.57;;;;;;;12.12;100.00;100173.88;6078880;19;20046;-74
2023/11/14 02:06:46;;;;;;;27.38;4.85;;;;;;;12.06;100.00;100165.41;6080077;19;20411;-73
2023/11/14 02:08:52;;;;;;;27.50;6.03;;;;;;;12.09;100.00;100172.28;6076055;19;20070;-74
2023/11/14 02:10:54;;;;;;;36.38;5.07;;;;;;;12.09;100.00;100167.00;6079585;19;20430;-73
2023/11/14 02:13:00;;;;;;;27.17;5.10;;;;;;;12.08;100.00;100160.91;6079817;19;20002;-73
2023/11/14 02:15:09;;;;;;;21.45;4.78;;;;;;;12.06;100.00;100170.66;6080298;19;20010;-73
2023/11/14 02:17:17;;;;;;;28.65;4.63;;;;;;;12.06;100.00;100172.47;6079381;19;20015;-72
2023/11/14 02:19:24;;;;;;;24.45;5.07;;;;;;;12.13;100.00;100159.78;6079451;19;20042;-74
2023/11/14 02:21:29;;;;;;;31.05;5.68;;;;;;;12.15;100.00;100166.66;6078379;19;20539;-73
2023/11/14 02:23:38;;;;;;;35.28;5.88;;;;;;;12.11;100.00;100175.66;6078226;19;20101;-73
2023/11/14 02:25:46;;;;;;;25.02;5.18;;;;;;;12.12;100.00;100166.81;6081201;19;20038;-74
2023/11/14 02:27:49;;;;;;;25.05;4.85;;;;;;;12.12;100.00;100155.44;6081164;19;20034;-74
2023/11/14 02:29:54;;;;;;;34.85;5.72;;;;;;;12.16;100.00;100170.13;6082557;19;20014;-74
2023/11/14 02:31:59;;;;;;;28.10;4.85;;;;;;;12.12;100.00;100176.53;6080372;19;20011;-72
2023/11/14 02:34:04;;;;;;;24.02;3.65;;;;;;;12.16;100.00;100181.50;6079179;19;20268;-73
2023/11/14 02:36:10;;;;;;;31.30;5.22;;;;;;;12.12;100.00;100182.63;6077558;19;20010;-72
2023/11/14 02:38:15;;;;;;;30.65;6.30;;;;;;;12.14;100.00;100186.03;6076379;19;20013;-72
2023/11/14 02:40:20;;;;;;;27.17;4.70;;;;;;;12.20;100.00;100180.41;6075224;19;20006;-74
2023/11/14 02:42:29;;;;;;;25.42;4.63;;;;;;;12.17;100.00;100185.84;6076370;19;20364;-73
2023/11/14 02:44:34;;;;;;;26.13;4.38;;;;;;;12.18;100.00;100186.69;6077228;19;20007;-73
2023/11/14 02:46:41;;;;;;;37.50;5.05;;;;;;;12.19;100.00;100196.28;6076237;19;20375;-73
2023/11/14 02:48:47;;;;;;;27.95;4.50;;;;;;;12.18;100.00;100187.53;6077942;19;20570;-72
2023/11/14 02:50:54;;;;;;;22.92;4.05;;;;;;;12.18;100.00;100195.44;6077184;19;20010;-71
2023/11/14 02:53:03;;;;;;;30.80;6.45;;;;;;;12.13;100.00;100200.13;6073204;19;20015;-71
2023/11/14 02:55:09;;;;;;;34.22;5.93;;;;;;;12.14;100.00;100188.66;6076147;19;20439;-71
2023/11/14 02:57:12;;;;;;;37.70;6.10;;;;;;;12.17;100.00;100185.84;6076064;19;20017;-71
2023/11/14 02:59:20;;;;;;;32.33;6.63;;;;;;;12.17;100.00;100191.13;6075763;19;20041;-73
2023/11/14 03:01:26;;;;;;;22.65;4.38;;;;;;;12.18;100.00;100203.34;6076906;19;20508;-73
2023/11/14 03:03:31;;;;;;;24.05;4.90;;;;;;;12.12;100.00;100205.50;6076391;19;20010;-74
2023/11/14 03:05:36;;;;;;;25.85;4.90;;;;;;;12.15;100.00;100208.78;6075806;19;20013;-72
2023/11/14 03:07:42;;;;;;;24.00;5.03;;;;;;;12.10;100.00;100213.47;6074732;19;20009;-73
2023/11/14 03:09:47;;;;;;;27.77;6.03;;;;;;;12.11;100.00;100203.78;6075317;19;20007;-72
2023/11/14 03:11:49;;;;;;;27.33;5.70;;;;;;;12.08;100.00;100210.06;6072792;19;20106;-71
2023/11/14 03:13:56;;;;;;;35.80;6.82;;;;;;;12.10;100.00;100213.47;6069187;19;20574;-71
2023/11/14 03:16:06;;;;;;;36.30;6.00;;;;;;;12.07;100.00;100211.84;6076280;19;20328;-73
2023/11/14 03:18:11;;;;;;;24.27;5.20;;;;;;;12.09;100.00;100214.41;6070456;19;20024;-73
2023/11/14 03:20:20;;;;;;;27.75;5.75;;;;;;;12.07;100.00;100206.59;6073382;19;20038;-73
2023/11/14 03:22:37;;;;;;;21.00;5.47;;;;;;;12.04;100.00;100209.41;6073900;19;20443;-72
2023/11/14 03:24:43;;;;;;;33.60;5.75;;;;;;;12.01;100.00;100206.94;6072278;19;20011;-72
2023/11/14 03:26:50;;;;;;;21.95;4.97;;;;;;;11.99;100.00;100206.19;6072064;19;21305;-72
2023/11/14 03:28:52;;;;;;;20.98;5.05;;;;;;;12.04;100.00;100221.72;6074832;19;20006;-71
2023/11/14 03:30:59;;;;;;;30.85;4.35;;;;;;;12.03;100.00;100220.00;6075267;19;20590;-72
2023/11/14 03:33:06;;;;;;;35.08;6.85;;;;;;;12.02;100.00;100227.06;6074606;19;20378;-73
2023/11/14 03:35:12;;;;;;;31.55;5.57;;;;;;;12.06;100.00;100220.69;6074770;19;20432;-72
2023/11/14 03:37:17;;;;;;;34.17;5.72;;;;;;;12.14;100.00;100219.41;6075596;19;20002;-72
2023/11/14 03:39:36;;;;;;;24.42;4.78;;;;;;;12.14;100.00;100227.28;6104682;19;20365;-72
2023/11/14 03:41:43;;;;;;;31.40;5.10;;;;;;;12.11;100.00;100216.94;6102966;19;20013;-72
2023/11/14 03:43:48;;;;;;;31.65;4.90;;;;;;;12.07;100.00;100234.72;6103093;19;20037;-72
2023/11/14 03:45:53;;;;;;;21.05;4.93;;;;;;;12.08;100.00;100228.50;6103303;19;20018;-73
2023/11/14 03:47:59;;;;;;;33.78;6.55;;;;;;;12.04;100.00;100235.72;6103950;19;20010;-73
2023/11/14 03:50:07;;;;;;;29.55;5.30;;;;;;;12.04;100.00;100237.53;6100085;19;20004;-74
2023/11/14 03:52:18;;;;;;;24.63;4.32;;;;;;;12.00;100.00;100238.63;6101533;19;20631;-74
2023/11/14 03:54:23;;;;;;;24.38;4.00;;;;;;;11.99;100.00;100235.16;6099434;19;20027;-73
2023/11/14 03:56:30;;;;;;;26.15;4.85;;;;;;;11.98;100.00;100232.59;6103406;19;20006;-73
2023/11/14 03:58:35;;;;;;;25.50;5.15;;;;;;;11.91;100.00;100237.34;6099253;19;20042;-73
2023/11/14 04:00:39;;;;;;;33.75;4.13;;;;;;;11.89;100.00;100233.94;6103600;19;20014;-73
2023/11/14 04:02:45;;;;;;;28.23;6.20;;;;;;;11.94;100.00;100237.19;6102369;19;20097;-74
2023/11/14 04:04:52;;;;;;;32.90;5.40;;;;;;;11.88;100.00;100237.53;6100486;19;20445;-73
2023/11/14 04:06:58;;;;;;;25.30;4.95;;;;;;;11.93;100.00;100235.50;6102054;19;20006;-73
2023/11/14 04:09:04;;;;;;;22.30;5.53;;;;;;;11.84;100.00;100236.81;6101907;19;20086;-73
2023/11/14 04:11:12;;;;;;;22.15;4.90;;;;;;;11.83;100.00;100240.38;6101995;19;20010;-72
2023/11/14 04:13:21;;;;;;;24.77;4.70;;;;;;;11.86;100.00;100237.59;6095585;19;20006;-72
2023/11/14 04:15:26;;;;;;;33.15;5.38;;;;;;;11.88;100.00;100234.91;6100859;19;20016;-71
2023/11/14 04:17:34;;;;;;;26.90;5.28;;;;;;;11.86;100.00;100249.94;6102533;19;20034;-71
2023/11/14 04:19:40;;;;;;;27.13;4.50;;;;;;;11.88;100.00;100240.16;6100718;19;21232;-71
2023/11/14 04:21:48;;;;;;;29.63;6.10;;;;;;;11.89;100.00;100233.13;6100716;19;20550;-71
2023/11/14 04:23:55;;;;;;;30.85;5.45;;;;;;;11.91;100.00;100242.63;6100948;19;20038;-75
2023/11/14 04:26:00;;;;;;;20.95;5.82;;;;;;;11.89;100.00;100246.28;6098715;19;20546;-73
2023/11/14 04:28:06;;;;;;;34.42;5.28;;;;;;;11.90;100.00;100230.41;6102664;19;19999;-73
2023/11/14 04:30:14;;;;;;;20.42;4.85;;;;;;;11.89;100.00;100239.22;6102715;19;20010;-73
2023/11/14 04:32:19;;;;;;;25.00;4.82;;;;;;;11.91;100.00;100234.72;6102079;19;20269;-72
2023/11/14 04:34:26;;;;;;;20.08;3.72;;;;;;;11.89;100.00;100230.47;6101741;19;20029;-72
2023/11/14 04:36:31;;;;;;;23.27;4.65;;;;;;;11.89;100.00;100233.94;6102243;19;20038;-73
2023/11/14 04:38:36;;;;;;;31.02;5.40;;;;;;;11.89;100.00;100231.31;6098461;19;20037;-73
2023/11/14 04:40:39;;;;;;;23.80;5.30;;;;;;;11.93;100.00;100218.81;6096675;19;20014;-73
2023/11/14 04:42:45;;;;;;;25.95;5.68;;;;;;;11.93;100.00;100229.34;6101467;19;20023;-73
2023/11/14 04:44:53;;;;;;;22.98;4.60;;;;;;;11.91;100.00;100249.69;6102660;19;20006;-73
2023/11/14 04:47:01;;;;;;;24.83;5.72;;;;;;;11.89;100.00;100233.94;6100016;19;20434;-72
2023/11/14 04:49:07;;;;;;;39.22;5.55;;;;;;;11.86;100.00;100232.34;6099351;19;20002;-72
2023/11/14 04:51:15;;;;;;;25.98;5.63;;;;;;;11.89;100.00;100233.13;6077028;19;20033;-72
2023/11/14 04:53:20;;;;;;;21.30;5.03;;;;;;;11.85;100.00;100238.53;6073684;19;20014;-72
2023/11/14 04:55:25;;;;;;;29.23;6.53;;;;;;;11.83;100.00;100234.28;6079059;19;20028;-72
2023/11/14 04:57:30;;;;;;;22.02;4.72;;;;;;;11.85;100.00;100249.06;6076604;19;20225;-73
2023/11/14 04:59:38;;;;;;;28.77;5.70;;;;;;;11.83;100.00;100256.19;6076200;19;20339;-73
2023/11/14 05:01:43;;;;;;;27.23;6.38;;;;;;;11.83;100.00;100264.06;6077160;19;19994;-73
2023/11/14 05:03:51;;;;;;;30.85;6.28;;;;;;;11.92;100.00;100259.25;6079269;19;20367;-72
2023/11/14 05:05:56;;;;;;;25.85;5.25;;;;;;;11.91;100.00;100268.94;6077791;19;21277;-72
2023/11/14 05:08:01;;;;;;;27.77;4.93;;;;;;;11.93;100.00;100268.84;6076650;19;20006;-72
2023/11/14 05:10:07;;;;;;;22.08;4.15;;;;;;;11.91;100.00;100258.41;6075868;19;20037;-72
2023/11/14 05:12:12;;;;;;;31.00;5.53;;;;;;;11.90;100.00;100254.09;6073460;19;20114;-73
2023/11/14 05:14:17;;;;;;;29.13;6.22;;;;;;;11.90;100.00;100254.09;6076748;19;20375;-73
2023/11/14 05:16:23;;;;;;;28.77;4.80;;;;;;;11.86;100.00;100250.78;6077515;19;20019;-73
2023/11/14 05:18:26;;;;;;;24.70;4.32;;;;;;;11.90;100.00;100245.31;6080545;19;20611;-73
2023/11/14 05:20:34;;;;;;;30.40;5.97;;;;;;;11.90;100.00;100247.97;6079796;19;20067;-73
2023/11/14 05:22:39;;;;;;;27.13;5.80;;;;;;;11.88;100.00;100250.69;6081571;19;20420;-73
2023/11/14 05:24:44;;;;;;;28.48;6.43;;;;;;;11.86;100.00;100255.19;6081206;19;21353;-71
2023/11/14 05:26:49;;;;;;;29.13;5.47;;;;;;;11.81;100.00;100250.13;6080187;19;20381;-72
2023/11/14 05:28:52;;;;;;;25.60;4.63;;;;;;;11.82;100.00;100254.50;6081585;19;20006;-74
2023/11/14 05:30:57;;;;;;;31.38;4.40;;;;;;;11.82;100.00;100254.50;6080116;19;20381;-73
2023/11/14 05:33:02;;;;;;;32.58;5.22;;;;;;;11.81;100.00;100249.28;6079151;19;20143;-74
2023/11/14 05:35:08;;;;;;;36.20;6.47;;;;;;;11.83;100.00;100261.44;6081256;19;20086;-73
2023/11/14 05:37:16;;;;;;;25.77;4.65;;;;;;;11.82;100.00;100265.03;6079007;19;20415;-74
2023/11/14 05:39:21;;;;;;;21.63;5.65;;;;;;;11.83;100.00;100269.34;6074259;19;20051;-73
2023/11/14 05:41:26;;;;;;;29.95;6.20;;;;;;;11.91;100.00;100268.09;6078944;19;20003;-74
2023/11/14 05:43:31;;;;;;;28.15;5.53;;;;;;;11.91;100.00;100265.47;6077094;19;20575;-73
2023/11/14 05:45:36;;;;;;;34.92;4.53;;;;;;;11.85;100.00;100259.59;6075847;19;20014;-73
2023/11/14 05:47:42;;;;;;;22.60;4.65;;;;;;;11.84;100.00;100262.28;6077186;19;20868;-73
2023/11/14 05:49:45;;;;;;;21.50;5.55;;;;;;;11.81;100.00;100273.00;6078126;19;20033;-74
2023/11/14 05:51:50;;;;;;;32.72;6.43;;;;;;;11.83;100.00;100279.88;6079911;19;20030;-73
2023/11/14 05:53:58;;;;;;;25.70;5.30;;;;;;;11.82;100.00;100278.19;6075272;19;20017;-73
2023/11/14 05:56:03;;;;;;;26.90;5.03;;;;;;;11.84;100.00;100278.06;6076820;19;20552;-73
2023/11/14 05:58:08;;;;;;;24.25;5.55;;;;;;;11.80;100.00;100287.09;6077037;19;20007;-73
2023/11/14 06:00:15;;;;;;;32.55;5.00;;;;;;;11.82;100.00;100290.47;6075437;19;20070;-73
2023/11/14 06:02:20;;;;;;;26.27;5.65;;;;;;;11.81;100.00;100297.53;6077190;19;20007;-75
2023/11/14 06:04:25;;;;;;;29.42;5.40;;;;;;;11.88;100.00;100310.41;6079032;19;20727;-72
2023/11/14 06:06:35;;;;;;;29.83;5.15;;;;;;;11.86;100.00;100313.97;6077554;19;20061;-73
2023/11/14 06:08:40;;;;;;;26.05;5.13;;;;;;;11.86;100.00;100319.22;6076527;19;20010;-72
2023/11/14 06:10:45;;;;;;;30.23;5.93;;;;;;;11.92;100.00;100312.75;6074519;19;20030;-72
2023/11/14 06:12:51;;;;;;;26.50;5.32;;;;;;;11.96;100.00;100318.75;6077136;19;20003;-73
2023/11/14 06:14:56;;;;;;;30.35;5.70;;;;;;;11.95;100.00;100322.28;6076201;19;20031;-73
2023/11/14 06:17:01;;;;;;;30.92;5.32;;;;;;;11.94;100.00;100310.06;6075265;19;20659;-72
2023/11/14 06:19:07;;;;;;;29.38;4.57;;;;;;;11.93;100.00;100318.88;6075729;19;20011;-72
2023/11/14 06:21:12;;;;;;;34.50;5.65;;;;;;;11.91;100.00;100315.50;6075765;19;20022;-72
2023/11/14 06:23:19;;;;;;;26.70;5.57;;;;;;;11.92;100.00;100317.19;6075232;19;20793;-71
2023/11/14 06:25:24;;;;;;;31.75;5.20;;;;;;;11.88;100.00;100313.03;6074288;19;20033;-73
2023/11/14 06:27:32;;;;;;;28.15;4.63;;;;;;;11.92;100.00;100307.50;6073868;19;20019;-72
2023/11/14 06:29:37;;;;;;;35.72;5.95;;;;;;;11.92;100.00;100304.03;6074726;19;20688;-76
2023/11/14 06:31:44;;;;;;;32.10;5.00;;;;;;;11.94;100.00;100303.00;6074937;19;20003;-73
2023/11/14 06:33:51;;;;;;;27.85;5.63;;;;;;;11.86;100.00;100305.22;6073500;19;20006;-74
2023/11/14 06:35:56;;;;;;;29.52;5.50;;;;;;;11.87;100.00;100306.91;6075760;19;20003;-73
2023/11/14 06:38:01;;;;;;;34.10;7.22;;;;;;;11.93;100.00;100310.97;6074130;19;20123;-74
2023/11/14 06:40:07;;;;;;;24.35;4.15;;;;;;;11.96;100.00;100298.50;6076636;19;20038;-73
2023/11/14 06:42:12;;;;;;;26.90;4.43;;;;;;;11.91;100.00;100299.69;6076974;19;20462;-73
2023/11/14 06:44:21;;;;;;;30.40;4.95;;;;;;;11.89;100.00;100302.41;6071150;19;20019;-73
2023/11/14 06:46:26;;;;;;;36.10;5.50;;;;;;;11.83;100.00;100302.72;6072991;19;20447;-74
2023/11/14 06:48:31;;;;;;;32.28;6.82;;;;;;;11.82;100.00;100306.25;6072332;19;20018;-74
2023/11/14 06:50:36;;;;;;;25.98;5.05;;;;;;;11.82;100.00;100312.41;6071213;19;20433;-73
2023/11/14 06:52:51;;;;;;;22.45;5.47;;;;;;;11.76;100.00;100317.97;6068893;19;20582;-73
2023/11/14 06:54:56;;;;;;;27.13;4.88;;;;;;;11.82;100.00;100309.78;6073321;19;20007;-74
2023/11/14 06:57:01;;;;;;;27.65;5.07;;;;;;;11.82;100.00;100317.66;6072713;19;21299;-75
2023/11/14 06:59:10;;;;;;;24.70;5.20;;;;;;;11.86;100.00;100315.75;6077532;19;20006;-73
2023/11/14 07:01:17;;;;;;;28.40;5.70;;;;;;;11.88;100.00;100318.31;6074032;19;20045;-74
2023/11/14 07:03:22;;;;;;;38.70;5.95;;;;;;;11.83;100.00;100327.25;6073334;19;20326;-74
2023/11/14 07:05:27;;;;;;;28.30;6.00;;;;;;;11.89;100.00;100334.00;6073426;19;20031;-73
2023/11/14 07:07:35;;;;;;;49.08;5.47;;;;;;;11.89;100.00;100317.38;6073750;19;20010;-73
2023/11/14 07:09:40;;;;;;;29.92;5.70;;;;;;;11.89;100.00;100325.25;6073095;19;20377;-73
2023/11/14 07:11:47;;;;;;;32.88;6.07;;;;;;;11.85;100.00;100330.66;6072342;19;20061;-73
2023/11/14 07:13:50;;;;;;;27.33;5.68;;;;;;;11.86;100.00;100321.84;6072411;19;20007;-76
2023/11/14 07:15:55;;;;;;;34.25;5.47;;;;;;;11.92;100.00;100322.44;6074840;19;20013;-74
2023/11/14 07:18:08;;;;;;;25.65;4.82;;;;;;;11.90;100.00;100332.22;6076281;19;20027;-74
2023/11/14 07:20:20;;;;;;;19.80;4.20;;;;;;;11.88;100.00;100337.59;6072695;19;20484;-74
2023/11/14 07:22:26;;;;;;;33.97;6.05;;;;;;;11.89;100.00;100333.16;6075469;19;20024;-74
2023/11/14 07:24:31;;;;;;;34.58;4.55;;;;;;;11.90;100.00;100337.47;6074603;19;20017;-74
2023/11/14 07:26:36;;;;;;;27.95;5.07;;;;;;;11.90;100.00;100338.34;6073040;19;20085;-74
2023/11/14 07:28:43;;;;;;;26.83;6.18;;;;;;;11.90;100.00;100335.72;6074614;19;20012;-72
2023/11/14 07:30:49;;;;;;;25.05;5.35;;;;;;;11.89;100.00;100338.41;6072266;19;20010;-75
2023/11/14 07:32:54;;;;;;;31.00;4.55;;;;;;;11.96;100.00;100334.53;6074035;19;20006;-73
2023/11/14 07:35:02;;;;;;;31.50;6.05;;;;;;;11.93;100.00;100334.69;6074195;19;20444;-76
2023/11/14 07:37:05;;;;;;;31.98;5.60;;;;;;;11.93;100.00;100321.50;6075838;19;20847;-72
2023/11/14 07:39:10;;;;;;;24.75;5.60;;;;;;;11.90;100.00;100324.31;6072668;19;20099;-72
2023/11/14 07:41:15;;;;;;;37.03;4.82;;;;;;;11.93;100.00;100325.03;6072027;19;20155;-72
2023/11/14 07:43:23;;;;;;;31.80;6.00;;;;;;;11.98;100.00;100324.75;6074404;19;20010;-73
2023/11/14 07:45:28;;;;;;;25.35;5.10;;;;;;;11.93;100.00;100326.78;6073148;19;20849;-74
2023/11/14 07:47:34;;;;;;;23.65;5.47;;;;;;;11.97;100.00;100323.06;6071530;19;20525;-72
2023/11/14 07:49:39;;;;;;;22.58;5.03;;;;;;;11.93;100.00;100329.41;6072873;19;20006;-72
2023/11/14 07:51:48;;;;;;;28.42;4.38;;;;;;;11.99;100.00;100326.47;6072818;19;20015;-75
2023/11/14 07:53:53;;;;;;;24.33;5.70;;;;;;;11.99;100.00;100329.94;6075200;19;20011;-74
2023/11/14 07:56:00;;;;;;;19.70;4.38;;;;;;;11.97;100.00;100328.31;6076414;19;20007;-74
2023/11/14 07:58:05;;;;;;;26.52;5.82;;;;;;;11.94;100.00;100328.50;6068793;19;20692;-74
2023/11/14 08:00:14;;;;;;;33.17;5.38;;;;;;;11.95;100.00;100328.41;6067120;19;20453;-74
2023/11/14 08:02:20;;;;;;;24.15;5.15;;;;;;;11.93;100.00;100321.50;6066553;19;20335;-74
2023/11/14 08:04:25;;;;;;;29.40;4.13;;;;;;;11.96;100.00;100334.53;6066197;19;20003;-73
2023/11/14 08:06:28;;;;;;;22.65;5.65;;;;;;;11.93;100.00;100326.78;6070138;19;20033;-73
2023/11/14 08:08:37;;;;;;;29.08;5.95;;;;;;;11.92;100.00;100323.31;6066697;19;20031;-74
2023/11/14 08:10:47;;;;;;;28.17;5.25;;;;;;;11.91;100.00;100320.78;6060667;19;20049;-74
2023/11/14 08:12:53;;;;;;;39.60;6.13;;;;;;;11.89;100.00;100318.22;6070308;19;20599;-73
2023/11/14 08:14:56;;;;;;;31.95;5.82;;;;;;;11.91;100.00;100312.88;6070213;19;20007;-73
2023/11/14 08:17:02;;;;;;;28.92;5.20;;;;;;;11.87;100.00;100312.16;6066756;19;20015;-73
2023/11/14 08:19:07;;;;;;;33.03;4.68;;;;;;;11.87;100.00;100320.06;6069302;19;20030;-74
2023/11/14 08:21:14;;;;;;;26.83;5.63;;;;;;;11.84;100.00;100318.41;6072909;19;20483;-73
2023/11/14 08:23:19;;;;;;;24.55;5.07;;;;;;;11.82;100.00;100307.16;6075225;19;20006;-75
2023/11/14 08:25:27;;;;;;;35.78;4.88;;;;;;;11.86;100.00;100319.22;6077487;19;20037;-74
2023/11/14 08:27:32;;;;;;;26.70;4.53;;;;;;;11.85;100.00;100316.66;6077987;19;20648;-73
2023/11/14 08:29:41;;;;;;;27.98;5.38;;;;;;;11.90;100.00;100319.03;6077449;19;20354;-73
2023/11/14 08:31:46;;;;;;;22.80;4.80;;;;;;;11.93;100.00;100310.97;6077408;19;20003;-74
2023/11/14 08:33:52;;;;;;;26.85;4.65;;;;;;;11.97;100.00;100325.69;6075164;19;20002;-74
2023/11/14 08:36:00;;;;;;;29.65;6.18;;;;;;;12.05;100.00;100320.84;6077011;19;19999;-74
2023/11/14 08:38:07;;;;;;;21.67;4.60;;;;;;;12.03;100.00;100322.72;6075051;19;21327;-73
2023/11/14 08:40:24;;;;;;;37.28;5.80;;;;;;;12.07;100.00;100321.63;6075842;19;20002;-73
2023/11/14 08:42:34;;;;;;;27.50;6.03;;;;;;;12.10;100.00;100333.78;6074617;19;20038;-73
2023/11/14 08:44:40;;;;;;;23.67;4.40;;;;;;;12.07;100.00;100321.63;6074913;19;20487;-73
2023/11/14 08:46:45;;;;;;;34.47;6.22;;;;;;;12.13;100.00;100326.53;6077991;19;20007;-73
2023/11/14 08:48:49;;;;;;;32.50;6.68;;;;;;;12.16;100.00;100325.53;6074063;19;20010;-73
2023/11/14 08:50:54;;;;;;;29.75;4.47;;;;;;;12.17;100.00;100328.09;6075153;19;20472;-75
2023/11/14 08:52:59;;;;;;;23.67;4.80;;;;;;;12.22;100.00;100325.22;6074780;19;20357;-74
2023/11/14 08:55:06;;;;;;;35.97;5.40;;;;;;;12.25;100.00;100333.78;6072866;19;20014;-74
2023/11/14 08:57:11;;;;;;;21.52;4.00;;;;;;;12.34;100.00;100328.94;6071698;19;20360;-73
2023/11/14 08:59:19;;;;;;;21.50;4.03;;;;;;;12.34;100.00;100335.03;6074793;19;20045;-74
2023/11/14 09:01:25;;;;;;;24.67;4.07;;;;;;;12.36;100.00;100333.19;6074303;19;20033;-74
2023/11/14 09:03:30;;;;;;;22.30;4.70;;;;;;;12.37;100.00;100339.28;6074750;19;20446;-75
2023/11/14 09:05:36;;;;;;;37.65;5.47;;;;;;;12.44;100.00;100335.38;6075061;19;20051;-74
2023/11/14 09:07:43;;;;;;;29.73;5.28;;;;;;;12.45;100.00;100337.06;6076683;19;20007;-75
2023/11/14 09:09:50;;;;;;;29.77;4.45;;;;;;;12.51;100.00;100326.19;6078967;19;20479;-75
2023/11/14 09:11:56;;;;;;;24.00;4.75;;;;;;;12.54;100.00;100326.03;6079330;19;19998;-75
2023/11/14 09:14:05;;;;;;;33.30;5.72;;;;;;;12.51;100.00;100320.94;6079518;19;20448;-74
2023/11/14 09:16:13;;;;;;;23.63;5.07;;;;;;;12.58;100.00;100324.06;6075032;19;20034;-74
2023/11/14 09:18:19;;;;;;;26.63;4.22;;;;;;;12.69;100.00;100330.44;6078496;19;20013;-73
2023/11/14 09:20:22;;;;;;;18.65;5.07;;;;;;;12.76;100.00;100332.69;6079467;19;20017;-73
2023/11/14 09:22:30;;;;;;;27.88;4.88;;;;;;;12.81;100.00;100334.13;6080608;19;20002;-74
2023/11/14 09:24:35;;;;;;;25.73;4.32;;;;;;;12.92;100.00;100330.88;6074923;19;20013;-72
2023/11/14 09:26:38;;;;;;;24.20;5.03;;;;;;;13.04;100.00;100334.59;6074716;19;20524;-72
2023/11/14 09:28:43;;;;;;;19.25;4.72;;;;;;;13.12;100.00;100334.97;6075854;19;20007;-72
2023/11/14 09:30:49;;;;;;;21.90;5.28;;;;;;;13.19;100.00;100331.03;6075687;19;20448;-74
2023/11/14 09:32:59;;;;;;;23.73;4.20;;;;;;;13.27;100.00;100333.22;6073977;19;20126;-75